Pagrindinis puslapis
METAR-TAF:

METAR-TAF

Oro uostai :

Rarotongos tarptautinis oro uostas

Rarotonga, Kuko Salos

platuma: 21-12S, ilguma: 159-49W, Aukštis: 7 m

Dabartinis oras

Ataskaita buvo paskelbta 15 minutes, ne 05:00 UTC
Vėjas 9 kt iš Rytų/Šiaurės Rytų
Temperatūra 26°C
Drėgmė 94%
Slėgis 1018 hPa
Matomumas 10 km arba daugiau

METAR: NCRG 290500Z AUTO 06009KT 9999 BKN013/// BKN049/// 26/25 Q1018 RERA

Laikas: 19:15 (05:15 UTC)

Prognozė

Ataskaita buvo paskelbta 1 valandą ir 33 minutes, ne 03:42 UTC
Prognozė galioja nuo 29 metu 03 UTC su 29 metu 24 UTC
Vėjas 10 kt iš Rytų/Šiaurės Rytų
Matomumas 10 km arba daugiau
Mažai debesys ne aukštis 1500 ft
Su prošvaistėmis ne aukštis 2000 ft
Tikimybė 40% :
Laikinai
tarp 30 ir 00 UTC
Su prošvaistėmis ne aukštis 1600 ft
Mažai debesys ne aukštis 1700 ft, Liūtiniai kamuoliniai debesys.
perkūnija, lietus

TAF: NCRG 290342Z 2903/2924 06010KT 9999 FEW015 BKN020 PROB40 TEMPO 3000 TSRA BKN016 FEW017CB

Orai ataskaitas ir orų prognozės (METAR, TAF).

turimą stotys yra geltonos ir raudonos taškus žemėlapyje.

Perkelti pele per norėdami pamatyti stoties vardą.

Tada spustelėkite, norėdami matyti oro stebėjimo ir prognozės.

Norėdami pakeisti žemėlapį: spustelėkite ant žalios mygtukų su juodo kryžiaus žemyn,; žalią mygtuką su brūkšneliu, jei norite nutolinti; arba žalių rodyklių gretimoms žemėlapius.


METAR-TAF: